Latest Weather Observations for Lucas Heights (ANSTO)

IDN60801

Issued at 2:33 pm EDT Tuesday 18 January 2022 (issued every 10 minutes, with the page automatically refreshed every 10 minutes)

About weather observations | Map of weather stations | Latest weather observations for NSW | Other Formats
Station Details ID: 066023 Name: LUCAS HEIGHTS (ANSTO) Lat: -34.05 Lon: 150.98 Height: 140.0 m
Data from the previous 72 hours. | See also: Recent months for locations in New South Wales
Date/Time
EDT
Temp
°C
App
Temp
°C
Dew
Point
°C
Rel
Hum
%
Delta-T
°C
Wind Press
QNH
hPa
Press
MSL
hPa
Rain since
9am
mm
Dir  Spd
km/h
Gust
km/h
Spd
kts
Gust
kts
18/02:15pm 21.9 - - - - SSE 24 32 13 17 1013.1 - 0.8
18/02:00pm 21.9 - - - - SSE 22 30 12 16 1013.2 - 0.8
18/01:45pm 21.9 - - - - SSE 24 32 13 17 1013.3 - 0.8
18/01:30pm 21.9 - - - - SSE 22 30 12 16 1013.5 - 0.8
18/01:15pm 21.7 - - - - SSE 24 26 13 14 1013.4 - 0.8
18/01:00pm 21.8 - - - - SSE 22 26 12 14 1013.5 - 0.8
18/12:45pm 21.7 - - - - SSE 17 24 9 13 1013.5 - 0.8
18/12:30pm 21.8 - - - - SSE 19 26 10 14 1013.6 - 0.8
18/12:15pm 21.6 - - - - SSE 19 28 10 15 1013.6 - 0.6
18/12:00pm 21.5 - - - - SSE 24 30 13 16 1013.8 - 0.6
18/11:45am 21.4 - - - - SSE 22 26 12 14 1013.8 - 0.6
18/11:30am 21.2 - - - - SSE 19 24 10 13 1014.0 - 0.6
18/11:15am 21.1 - - - - SSE 22 30 12 16 1013.7 - 0.6
18/11:00am 21.2 - - - - SSE 19 24 10 13 1013.6 - 0.4
18/10:45am 21.5 - - - - SSE 11 19 6 10 1013.7 - 0.2
18/10:30am 21.8 - - - - S 11 19 6 10 1013.7 - 0.0
18/10:15am 21.9 - - - - S 19 24 10 13 1013.7 - 0.0
18/10:00am 22.1 - - - - S 17 22 9 12 1013.6 - 0.0
18/09:45am 22.0 - - - - S 19 24 10 13 1013.5 - 0.0
18/09:30am 21.9 - - - - SSE 24 33 13 18 1013.2 - 0.0
18/09:15am 21.9 - - - - SSE 30 37 16 20 1013.0 - 0.0
18/09:00am 21.9 - - - - SSE 26 35 14 19 1012.9 - 0.0
18/08:45am 21.9 - - - - SSE 24 30 13 16 1012.6 - 0.0
18/08:30am 21.9 - - - - SSE 22 28 12 15 1012.4 - 0.0
18/08:15am 21.9 - - - - SSE 22 30 12 16 1012.2 - 0.0
18/08:00am 21.7 - - - - SSE 22 30 12 16 1011.9 - 0.0
18/07:45am 21.6 - - - - SSE 30 39 16 21 1011.6 - 0.0
18/07:30am 21.6 - - - - SSE 32 39 17 21 1011.4 - 0.0
18/07:15am 21.5 - - - - SSE 33 41 18 22 1011.3 - 0.0
18/07:00am 21.5 - - - - SSE 33 41 18 22 1011.1 - 0.0
18/06:45am 21.5 - - - - SSE 32 41 17 22 1010.9 - 0.0
18/06:30am 21.5 - - - - SSE 33 50 18 27 1010.8 - 0.0
18/06:15am 21.4 - - - - SSE 32 44 17 24 1010.6 - 0.0
18/06:00am 21.5 - - - - SSE 35 43 19 23 1010.4 - 0.0
18/05:45am 21.6 - - - - SSE 33 41 18 22 1010.2 - 0.0
18/05:30am 21.6 - - - - SSE 32 37 17 20 1010.1 - 0.0
18/05:15am 21.5 - - - - SSE 30 35 16 19 1009.9 - 0.0
18/05:00am 21.7 - - - - SSE 22 32 12 17 1009.9 - 0.0
18/04:45am 21.8 - - - - SSE 20 24 11 13 1009.7 - 0.0
18/04:30am 21.9 - - - - SSE 17 22 9 12 1009.8 - 0.0
18/04:15am 22.2 - - - - SSE 13 17 7 9 1009.8 - 0.0
18/04:00am 22.7 - - - - S 7 13 4 7 1009.9 - 0.0
18/03:45am 23.0 - - - - S 6 7 3 4 1010.0 - 0.0
18/03:30am 22.8 - - - - SW 7 7 4 4 1010.3 - 0.0
18/03:15am 22.8 - - - - SW 7 7 4 4 1010.3 - 0.0
18/03:00am 22.8 - - - - S 7 9 4 5 1010.2 - 0.0
18/02:45am 23.0 - - - - S 7 9 4 5 1010.4 - 0.0
18/02:30am 23.3 - - - - S 7 9 4 5 1010.6 - 0.0
18/02:15am 23.6 - - - - S 11 13 6 7 1010.8 - 0.0
18/02:00am 23.2 - - - - S 13 15 7 8 1010.8 - 0.0
18/01:45am 22.9 - - - - S 15 15 8 8 1010.9 - 0.0
18/01:30am 22.9 - - - - S 17 15 9 8 1010.9 - 0.0
18/01:15am 23.5 - - - - S 17 19 9 10 1010.8 - 0.0
18/01:00am 23.6 - - - - S 15 15 8 8 1011.0 - 0.0
18/12:45am 23.4 - - - - S 11 13 6 7 1011.1 - 0.0
18/12:30am 23.3 - - - - SSW 11 13 6 7 1011.2 - 0.0
18/12:15am 23.6 - - - - SSW 13 15 7 8 1011.3 - 0.0
18/12:00am 23.7 - - - - SW 20 20 11 11 1011.4 - 0.0
 
Date/Time
EDT
Temp
°C
App
Temp
°C
Dew
Point
°C
Rel
Hum
%
Delta-T
°C
Wind Press
QNH
hPa
Press
MSL
hPa
Rain since
9am
mm
Dir  Spd
km/h
Gust
km/h
Spd
kts
Gust
kts
17/11:45pm 23.6 - - - - SW 17 19 9 10 1011.4 - 0.0
17/11:30pm 23.8 - - - - SW 15 15 8 8 1011.4 - 0.0
17/11:15pm 23.8 - - - - WSW 15 15 8 8 1011.4 - 0.0
17/11:00pm 23.5 - - - - SW 9 11 5 6 1011.4 - 0.0
17/10:45pm 23.6 - - - - WSW 6 7 3 4 1011.6 - 0.0
17/10:30pm 23.6 - - - - W 7 9 4 5 1011.5 - 0.0
17/10:15pm 23.8 - - - - WNW 6 7 3 4 1011.5 - 0.0
17/10:00pm 23.9 - - - - NW 4 6 2 3 1011.5 - 0.0
17/09:45pm 23.9 - - - - N 6 9 3 5 1011.4 - 0.0
17/09:30pm 23.9 - - - - NNW 7 11 4 6 1011.2 - 0.0
17/09:15pm 24.2 - - - - NNW 6 7 3 4 1011.2 - 0.0
17/09:00pm 24.4 - - - - NNW 4 6 2 3 1011.2 - 0.0
17/08:45pm 24.5 - - - - N 7 7 4 4 1011.1 - 0.0
17/08:30pm 24.7 - - - - - 6 7 3 4 1011.0 - 0.0
17/08:15pm 24.8 - - - - NNE 6 7 3 4 1010.7 - 0.0
17/08:00pm 24.9 - - - - NE 9 9 5 5 1010.4 - 0.0
17/07:45pm 25.1 - - - - NE 9 11 5 6 1010.3 - 0.0
17/07:30pm 25.3 - - - - NE 7 11 4 6 1010.3 - 0.0
17/07:15pm 25.5 - - - - ENE 6 7 3 4 1010.1 - 0.0
17/07:00pm 25.6 - - - - ENE 6 9 3 5 1009.9 - 0.0
17/06:45pm 25.8 - - - - ENE 9 13 5 7 1009.6 - 0.0
17/06:30pm 26.0 - - - - NE 11 15 6 8 1009.0 - 0.0
17/06:15pm 26.1 - - - - NE 13 17 7 9 1008.8 - 0.0
17/06:00pm 26.4 - - - - NE 15 19 8 10 1008.8 - 0.0
17/05:45pm 26.5 - - - - ENE 13 17 7 9 1008.7 - 0.0
17/05:30pm 26.5 - - - - ENE 11 15 6 8 1008.8 - 0.0
17/05:15pm 26.6 - - - - E 13 15 7 8 1008.6 - 0.0
17/05:00pm 26.8 - - - - ENE 13 15 7 8 1008.4 - 0.0
17/04:45pm 26.7 - - - - ENE 15 20 8 11 1008.5 - 0.0
17/04:30pm 27.1 - - - - ENE 17 19 9 10 1008.5 - 0.0
17/04:15pm 27.1 - - - - ENE 17 19 9 10 1008.5 - 0.0
17/04:00pm 27.2 - - - - ENE 15 17 8 9 1008.6 - 0.0
17/03:45pm 27.2 - - - - ENE 17 19 9 10 1008.6 - 0.0
17/03:30pm 27.7 - - - - ENE 17 19 9 10 1008.6 - 0.0
17/03:15pm 28.5 - - - - ENE 17 20 9 11 1008.5 - 0.0
17/03:00pm 28.8 - - - - NE 17 20 9 11 1008.5 - 0.0
17/02:45pm 29.6 - - - - NE 11 19 6 10 1008.6 - 0.0
17/02:30pm 30.0 - - - - NW 6 11 3 6 1008.6 - 0.0
17/02:15pm 29.7 - - - - NNE 7 11 4 6 1008.8 - 0.0
17/02:00pm 29.6 - - - - N 7 15 4 8 1008.8 - 0.0
17/01:45pm 29.2 - - - - NE 9 15 5 8 1009.0 - 0.0
17/01:30pm 28.9 - - - - NNE 9 17 5 9 1009.1 - 0.0
17/01:15pm 28.5 - - - - N 7 15 4 8 1009.3 - 0.0
17/01:00pm 27.8 - - - - NNW 7 9 4 5 1009.6 - 0.0
17/12:45pm 27.7 - - - - NNW 9 15 5 8 1009.7 - 0.0
17/12:30pm 28.0 - - - - NNW 9 15 5 8 1009.8 - 0.0
17/12:15pm 27.7 - - - - NNW 11 19 6 10 1010.0 - 0.0
17/12:00pm 27.6 - - - - N 15 20 8 11 1010.1 - 0.0
17/11:45am 27.2 - - - - NNW 9 15 5 8 1010.2 - 0.0
17/11:30am 26.9 - - - - NNW 9 13 5 7 1010.3 - 0.0
17/11:15am 26.4 - - - - NW 9 15 5 8 1010.3 - 0.0
17/11:00am 26.0 - - - - NNW 11 15 6 8 1010.4 - 0.0
17/10:45am 25.6 - - - - NNW 9 13 5 7 1010.5 - 0.0
17/10:30am 25.4 - - - - NNW 11 15 6 8 1010.7 - 0.0
17/10:15am 25.2 - - - - NW 9 13 5 7 1010.6 - 0.0
17/10:00am 24.9 - - - - - 7 11 4 6 1010.4 - 0.0
17/09:45am 24.1 - - - - WNW 7 13 4 7 1010.3 - 0.0
17/09:30am 23.5 - - - - WNW 9 13 5 7 1010.5 - 0.0
17/09:15am 22.9 - - - - WNW 9 13 5 7 1010.8 - 0.0
17/09:00am 22.7 - - - - WNW 9 11 5 6 1011.1 - 0.0
17/08:45am 22.3 - - - - NW 9 13 5 7 1011.1 - 0.0
17/08:30am 22.4 - - - - NNW 7 11 4 6 1010.8 - 0.0
17/08:15am 22.6 - - - - NNW 4 7 2 4 1010.7 - 0.0
17/08:00am 22.1 - - - - NNW 4 7 2 4 1010.8 - 0.0
17/07:45am 21.7 - - - - NNW 4 7 2 4 1010.7 - 0.0
17/07:30am 20.9 - - - - N 4 6 2 3 1010.6 - 0.0
17/07:15am 20.1 - - - - NNE 6 7 3 4 1010.6 - 0.0
17/07:00am 19.2 - - - - NE 6 6 3 3 1010.8 - 0.0
17/06:45am 18.8 - - - - ENE 4 4 2 2 1010.0 - 0.0
17/06:30am 18.6 - - - - ENE 6 6 3 3 1009.8 - 0.0
17/06:15am 18.6 - - - - E 4 6 2 3 1009.8 - 0.0
17/06:00am 18.7 - - - - E 4 6 2 3 1009.6 - 0.0
17/05:45am 18.8 - - - - ESE 6 7 3 4 1009.8 - 0.0
17/05:30am 18.9 - - - - ESE 4 6 2 3 1009.7 - 0.0
17/05:15am 19.0 - - - - SE 6 7 3 4 1010.0 - 0.0
17/05:00am 19.3 - - - - SE 7 7 4 4 1009.8 - 0.0
17/04:45am 19.7 - - - - SSE 7 7 4 4 1009.8 - 0.0
17/04:30am 20.0 - - - - S 6 7 3 4 1009.9 - 0.0
17/04:15am 19.9 - - - - SSW 7 7 4 4 1009.9 - 0.0
17/04:00am 19.9 - - - - SSW 7 7 4 4 1009.9 - 0.0
17/03:45am 19.8 - - - - SSW 11 11 6 6 1010.1 - 0.0
17/03:30am 19.7 - - - - S 9 9 5 5 1010.1 - 0.0
17/03:15am 19.8 - - - - S 11 9 6 5 1010.0 - 0.0
17/03:00am 20.0 - - - - S 9 9 5 5 1010.2 - 0.0
17/02:45am 20.3 - - - - S 7 9 4 5 1010.4 - 0.0
17/02:30am 20.4 - - - - SSW 9 11 5 6 1010.6 - 0.0
17/02:15am 20.5 - - - - SW 15 15 8 8 1010.8 - 0.0
17/02:00am 20.4 - - - - WSW 17 19 9 10 1011.1 - 0.0
17/01:45am 20.6 - - - - WSW 17 15 9 8 1011.1 - 0.0
17/01:30am 20.3 - - - - W 7 11 4 6 1011.2 - 0.0
17/01:15am 20.0 - - - - WSW 6 7 3 4 1011.2 - 0.0
17/01:00am 19.9 - - - - SW 4 6 2 3 1010.9 - 0.0
17/12:45am 20.0 - - - - SW 4 4 2 2 1010.9 - 0.0
17/12:30am 20.2 - - - - SSW 6 7 3 4 1011.0 - 0.0
17/12:15am 20.4 - - - - S 7 7 4 4 1010.8 - 0.0
17/12:00am 20.5 - - - - SSW 7 7 4 4 1011.0 - 0.0
 
Date/Time
EDT
Temp
°C
App
Temp
°C
Dew
Point
°C
Rel
Hum
%
Delta-T
°C
Wind Press
QNH
hPa
Press
MSL
hPa
Rain since
9am
mm
Dir  Spd
km/h
Gust
km/h
Spd
kts
Gust
kts
16/11:45pm 20.6 - - - - S 11 13 6 7 1011.1 - 0.0
16/11:30pm 20.7 - - - - S 13 15 7 8 1011.4 - 0.0
16/11:15pm 20.8 - - - - S 15 15 8 8 1011.4 - 0.0
16/11:00pm 20.8 - - - - S 17 17 9 9 1011.1 - 0.0
16/10:45pm 20.8 - - - - S 15 17 8 9 1011.0 - 0.0
16/10:30pm 20.9 - - - - S 17 19 9 10 1011.2 - 0.0
16/10:15pm 21.0 - - - - S 13 15 7 8 1011.2 - 0.0
16/10:00pm 21.0 - - - - S 11 13 6 7 1011.0 - 0.0
16/09:45pm 21.1 - - - - S 15 20 8 11 1010.8 - 0.0
16/09:30pm 21.2 - - - - SSE 17 19 9 10 1010.7 - 0.0
16/09:15pm 21.3 - - - - SSE 17 19 9 10 1010.5 - 0.0
16/09:00pm 21.4 - - - - SSE 15 19 8 10 1010.2 - 0.0
16/08:45pm 21.5 - - - - SSE 15 19 8 10 1009.9 - 0.0
16/08:30pm 21.7 - - - - SSE 15 17 8 9 1009.8 - 0.0
16/08:15pm 21.9 - - - - SE 13 19 7 10 1009.6 - 0.0
16/08:00pm 22.2 - - - - SE 13 19 7 10 1009.4 - 0.0
16/07:45pm 22.4 - - - - SE 15 20 8 11 1009.3 - 0.0
16/07:30pm 22.5 - - - - SE 20 32 11 17 1009.0 - 0.0
16/07:15pm 22.7 - - - - SE 20 26 11 14 1008.9 - 0.0
16/07:00pm 22.9 - - - - SE 24 30 13 16 1008.7 - 0.0
16/06:45pm 23.2 - - - - SE 20 33 11 18 1008.6 - 0.0
16/06:30pm 23.6 - - - - SE 22 32 12 17 1008.4 - 0.0
16/06:15pm 23.4 - - - - SE 30 37 16 20 1008.3 - 0.0
16/06:00pm 23.5 - - - - SE 28 35 15 19 1008.2 - 0.0
16/05:45pm 24.1 - - - - SE 26 33 14 18 1008.1 - 0.0
16/05:30pm 24.4 - - - - SE 20 28 11 15 1007.9 - 0.0
16/05:15pm 24.7 - - - - SSE 24 32 13 17 1007.8 - 0.0
16/05:00pm 25.1 - - - - SE 22 33 12 18 1007.8 - 0.0
16/04:45pm 25.2 - - - - SE 26 30 14 16 1007.9 - 0.0
16/04:30pm 25.5 - - - - SE 24 26 13 14 1007.8 - 0.0
16/04:15pm 25.8 - - - - SE 22 26 12 14 1007.9 - 0.0
16/04:00pm 25.9 - - - - ESE 20 26 11 14 1007.9 - 0.0
16/03:45pm 26.4 - - - - SE 20 26 11 14 1007.8 - 0.0
16/03:30pm 26.2 - - - - SSE 19 24 10 13 1007.9 - 0.0
16/03:15pm 25.9 - - - - SSE 22 26 12 14 1008.1 - 0.0
16/03:00pm 26.3 - - - - SSE 22 28 12 15 1008.0 - 0.0
16/02:45pm 26.1 - - - - SE 19 26 10 14 1008.1 - 0.0
16/02:30pm 25.9 - - - - SSE 19 26 10 14 1008.2 - 0.0
16/02:15pm 25.4 - - - - SE 28 30 15 16 1008.4 - 0.0
16/02:00pm 25.4 - - - - SE 26 30 14 16 1008.5 - 0.0
16/01:45pm 25.6 - - - - SSE 26 33 14 18 1008.7 - 0.0
16/01:30pm 25.3 - - - - SSE 24 33 13 18 1008.8 - 0.0
16/01:15pm 25.4 - - - - SSE 20 30 11 16 1009.0 - 0.0
16/01:00pm 25.5 - - - - SE 26 33 14 18 1009.1 - 0.0
16/12:45pm 25.6 - - - - SSE 24 35 13 19 1009.0 - 0.0
16/12:30pm 25.4 - - - - SSE 28 35 15 19 1008.8 - 0.0
16/12:15pm 25.7 - - - - SSE 22 32 12 17 1008.8 - 0.0
16/12:00pm 24.9 - - - - SE 22 26 12 14 1009.0 - 0.0
16/11:45am 25.3 - - - - SE 20 28 11 15 1008.8 - 0.0
16/11:30am 25.8 - - - - SSE 19 24 10 13 1008.7 - 0.0
16/11:15am 25.6 - - - - SSE 15 20 8 11 1008.6 - 0.0
16/11:00am 25.9 - - - - SSE 15 19 8 10 1008.5 - 0.0
16/10:45am 25.7 - - - - SSE 15 20 8 11 1008.5 - 0.0
16/10:30am 25.2 - - - - SSE 11 15 6 8 1008.6 - 0.0
16/10:15am 25.1 - - - - S 13 15 7 8 1008.5 - 0.0
16/10:00am 26.0 - - - - SSE 19 20 10 11 1008.4 - 0.0
16/09:45am 25.6 - - - - S 17 24 9 13 1008.3 - 0.0
16/09:30am 24.8 - - - - SSE 15 24 8 13 1008.0 - 0.0
16/09:15am 24.6 - - - - S 19 26 10 14 1008.0 - 0.0
16/09:00am 23.7 - - - - S 20 26 11 14 1008.1 - 0.0
16/08:45am 23.3 - - - - S 19 26 10 14 1008.3 - 0.0
16/08:30am 22.7 - - - - SSE 20 28 11 15 1008.2 - 0.0
16/08:15am 22.3 - - - - S 19 24 10 13 1008.2 - 0.0
16/08:00am 22.3 - - - - SSE 22 30 12 16 1008.2 - 0.0
16/07:45am 22.3 - - - - S 15 20 8 11 1008.1 - 0.0
16/07:30am 22.1 - - - - S 17 20 9 11 1007.9 - 0.0
16/07:15am 21.8 - - - - S 15 20 8 11 1007.9 - 0.0
16/07:00am 21.5 - - - - S 13 19 7 10 1007.8 - 0.0
16/06:45am 21.4 - - - - SSE 15 20 8 11 1007.5 - 0.0
16/06:30am 21.2 - - - - SSE 19 24 10 13 1007.1 - 0.0
16/06:15am 21.1 - - - - SSE 20 30 11 16 1006.8 - 0.0
16/06:00am 21.0 - - - - SSE 19 26 10 14 1006.4 - 0.0
16/05:45am 20.9 - - - - SSE 20 26 11 14 1006.2 - 0.0
16/05:30am 20.7 - - - - SSE 22 32 12 17 1006.1 - 0.0
16/05:15am 20.7 - - - - SSE 15 20 8 11 1005.8 - 0.0
16/05:00am 20.9 - - - - SSE 20 24 11 13 1005.6 - 0.0
16/04:45am 20.9 - - - - SSE 20 28 11 15 1005.3 - 0.0
16/04:30am 20.8 - - - - SSE 22 26 12 14 1005.0 - 0.0
16/04:15am 20.9 - - - - SSE 22 28 12 15 1004.9 - 0.0
16/04:00am 21.0 - - - - SSE 26 33 14 18 1004.6 - 0.0
16/03:45am 21.0 - - - - SSE 26 32 14 17 1004.5 - 0.0
16/03:30am 21.1 - - - - SSE 26 33 14 18 1004.5 - 0.0
16/03:15am 21.3 - - - - SSE 28 35 15 19 1004.6 - 0.0
16/03:00am 21.4 - - - - SSE 28 35 15 19 1004.6 - 0.0
16/02:45am 21.4 - - - - SSE 26 33 14 18 1004.7 - 0.0
16/02:30am 21.1 - - - - SSE 20 26 11 14 1004.8 - 0.0
16/02:15am 20.7 - - - - SE 15 17 8 9 1004.8 - 0.0
16/02:00am 20.5 - - - - SE 13 15 7 8 1004.8 - 0.0
16/01:45am 20.4 - - - - SSE 13 13 7 7 1004.7 - 0.0
16/01:30am 20.8 - - - - E 6 7 3 4 1004.5 - 0.0
16/01:15am 20.7 - - - - SE 2 7 1 4 1004.6 - 0.0
16/01:00am 20.8 - - - - ENE 6 9 3 5 1004.7 - 0.0
16/12:45am 21.0 - - - - SSW 4 7 2 4 1004.5 - 0.0
16/12:30am 21.5 - - - - ESE 9 13 5 7 1004.7 - 0.0
16/12:15am 21.5 - - - - SSW 15 19 8 10 1004.6 - 0.0
16/12:00am 21.4 - - - - SSW 13 13 7 7 1004.5 - 0.0
 
Date/Time
EDT
Temp
°C
App
Temp
°C
Dew
Point
°C
Rel
Hum
%
Delta-T
°C
Wind Press
QNH
hPa
Press
MSL
hPa
Rain since
9am
mm
Dir  Spd
km/h
Gust
km/h
Spd
kts
Gust
kts
15/11:45pm 21.5 - - - - SSW 11 13 6 7 1004.5 - 0.0
15/11:30pm 21.8 - - - - SW 13 19 7 10 1004.6 - 0.0
15/11:15pm 22.1 - - - - SW 20 20 11 11 1004.8 - 0.0
15/11:00pm 22.3 - - - - SW 22 24 12 13 1004.9 - 0.0
15/10:45pm 22.7 - - - - SW 22 20 12 11 1004.7 - 0.0
15/10:30pm 22.5 - - - - WSW 20 20 11 11 1004.5 - 0.0
15/10:15pm 22.9 - - - - W 17 19 9 10 1004.5 - 0.0
15/10:00pm 23.3 - - - - W 19 20 10 11 1004.8 - 0.0
15/09:45pm 23.3 - - - - WNW 15 13 8 7 1004.6 - 0.0
15/09:30pm 22.9 - - - - NW 11 13 6 7 1004.4 - 0.0
15/09:15pm 22.9 - - - - WNW 4 7 2 4 1004.5 - 0.0
15/09:00pm 23.2 - - - - NNE 4 7 2 4 1004.5 - 0.0
15/08:45pm 23.5 - - - - NNE 9 13 5 7 1004.8 - 0.0
15/08:30pm 23.9 - - - - NE 9 13 5 7 1004.7 - 0.0
15/08:15pm 24.3 - - - - E 11 15 6 8 1004.7 - 0.0
15/08:00pm 24.6 - - - - E 11 17 6 9 1004.5 - 0.0
15/07:45pm 24.9 - - - - E 15 22 8 12 1004.6 - 0.0
15/07:30pm 25.3 - - - - ESE 22 26 12 14 1003.9 - 0.0
15/07:15pm 26.3 - - - - SE 19 32 10 17 1003.1 - 0.0
15/07:00pm 27.0 - - - - NE 17 20 9 11 1003.8 - 0.0
15/06:45pm 27.3 - - - - NE 19 26 10 14 1005.3 - 0.0
15/06:30pm 27.3 - - - - NE 20 24 11 13 1003.8 - 0.0
15/06:15pm 27.0 - - - - NE 22 28 12 15 1003.0 - 0.0
15/06:00pm 27.2 - - - - NE 19 26 10 14 1002.6 - 0.0
15/05:45pm 26.7 - - - - NE 22 30 12 16 1002.6 - 0.0
15/05:30pm 26.5 - - - - NE 19 24 10 13 1003.0 - 0.0
15/05:15pm 27.0 - - - - NE 20 24 11 13 1003.2 - 0.0
15/05:00pm 26.8 - - - - NE 19 24 10 13 1003.1 - 0.0
15/04:45pm 26.4 - - - - NE 26 33 14 18 1003.0 - 0.0
15/04:30pm 26.3 - - - - NE 24 30 13 16 1003.0 - 0.0
15/04:15pm 27.1 - - - - NE 22 28 12 15 1003.0 - 0.0
15/04:00pm 28.3 - - - - ENE 22 24 12 13 1003.2 - 0.0
15/03:45pm 28.7 - - - - NE 20 28 11 15 1003.3 - 0.0
15/03:30pm 29.0 - - - - NE 19 22 10 12 1003.2 - 0.0
15/03:15pm 29.0 - - - - NE 13 24 7 13 1003.3 - 0.0
15/03:00pm 29.2 - - - - NNW 9 17 5 9 1003.4 - 0.0
15/02:45pm 28.8 - - - - NNW 11 15 6 8 1003.5 - 0.0

Other formats

Comma delimited format used in spreadsheet applications
http://www.bom.gov.au/fwo/IDN60801/IDN60801.95757.axf

JavaScript Object Notation format (JSON) in row-major order
http://www.bom.gov.au/fwo/IDN60801/IDN60801.95757.json

Data quality

Most of these data are generated automatically and are frequently updated. Quality checks on data are not normally performed. It is possible for incorrect values to appear. Refer to information at About Latest Weather Observations and please check the disclaimer before using these data.